Time;durP1;ratioP1;P1;durP2;ratioP2;P2;SDS_P1;SDS_P2;PMS_P1;PMS_P2;Temp;Humidity;BMP_temperature;BMP_pressure;BME280_temperature;BME280_humidity;BME280_pressure;Samples;Min_cycle;Max_cycle;Signal;HPM_P1;HPM_P2
2022/12/14 00:00:10;;;;;;;64.53;25.85;;;;;;;-8.26;100.00;100580.00;2071861;28;33882;-72
2022/12/14 00:01:17;;;;;;;62.83;25.25;;;;;;;-8.31;100.00;100576.31;2072144;28;20246;-72
2022/12/14 00:02:19;;;;;;;65.28;26.50;;;;;;;-8.33;100.00;100583.13;2072425;28;20237;-73
2022/12/14 00:03:21;;;;;;;66.68;25.33;;;;;;;-8.37;100.00;100581.22;2063518;28;38533;-72
2022/12/14 00:04:23;;;;;;;56.75;23.70;;;;;;;-8.39;100.00;100577.69;2055340;28;35596;-72
2022/12/14 00:05:27;;;;;;;64.53;25.45;;;;;;;-8.44;100.00;100574.88;2063765;28;34997;-72
2022/12/14 00:06:31;;;;;;;62.97;25.15;;;;;;;-8.46;100.00;100577.41;2071739;28;41559;-72
2022/12/14 00:07:34;;;;;;;58.20;25.92;;;;;;;-8.49;100.00;100578.97;2072799;28;20246;-72
2022/12/14 00:08:36;;;;;;;74.72;27.38;;;;;;;-8.46;100.00;100574.81;2063311;28;36299;-72
2022/12/14 00:09:42;;;;;;;62.25;24.95;;;;;;;-8.47;100.00;100573.03;2064179;28;37153;-72
2022/12/14 00:10:44;;;;;;;77.22;28.58;;;;;;;-8.46;100.00;100576.53;2071777;28;38675;-72
2022/12/14 00:11:45;;;;;;;72.40;27.48;;;;;;;-8.42;100.00;100569.75;2071917;28;40283;-72
2022/12/14 00:12:49;;;;;;;75.05;27.13;;;;;;;-8.41;100.00;100569.81;2071856;28;40711;-72
2022/12/14 00:13:54;;;;;;;74.35;27.85;;;;;;;-8.35;100.00;100559.69;2071938;28;36526;-72
2022/12/14 00:14:56;;;;;;;74.93;27.80;;;;;;;-8.33;100.00;100554.59;2071991;28;36066;-72
2022/12/14 00:16:03;;;;;;;68.85;26.45;;;;;;;-8.21;100.00;100557.75;2071777;28;38632;-72
2022/12/14 00:17:05;;;;;;;70.35;27.92;;;;;;;-8.20;100.00;100559.53;2073086;28;21149;-72
2022/12/14 00:18:09;;;;;;;76.95;28.05;;;;;;;-8.19;100.00;100561.31;2063009;28;39253;-72
2022/12/14 00:19:11;;;;;;;71.50;27.27;;;;;;;-8.18;100.00;100554.41;2055700;28;37265;-72
2022/12/14 00:20:13;;;;;;;76.43;28.63;;;;;;;-8.18;100.00;100560.50;2047214;28;36627;-72
2022/12/14 00:21:15;;;;;;;75.00;28.73;;;;;;;-8.18;100.00;100555.31;2047573;28;37949;-72
2022/12/14 00:22:17;;;;;;;65.97;26.13;;;;;;;-8.20;100.00;100559.53;2056521;28;20282;-72
2022/12/14 00:23:21;;;;;;;77.10;28.38;;;;;;;-8.19;100.00;100561.31;2063030;28;38788;-72
2022/12/14 00:24:22;;;;;;;68.20;26.33;;;;;;;-8.24;100.00;100560.19;2071698;28;37984;-72
2022/12/14 00:25:24;;;;;;;73.47;27.35;;;;;;;-8.24;100.00;100562.78;2071798;28;41405;-72
2022/12/14 00:26:31;;;;;;;75.07;27.73;;;;;;;-8.25;100.00;100553.25;2063286;28;38633;-72
2022/12/14 00:27:34;;;;;;;69.13;26.80;;;;;;;-8.22;100.00;100555.09;2065218;28;21174;-72
2022/12/14 00:28:37;;;;;;;79.63;28.80;;;;;;;-8.18;100.00;100554.41;2071876;28;35211;-72
2022/12/14 00:29:39;;;;;;;75.20;28.50;;;;;;;-8.18;100.00;100552.72;2072320;28;20367;-72
2022/12/14 00:30:40;;;;;;;72.03;27.95;;;;;;;-8.19;100.00;100558.72;2072201;28;32157;-72
2022/12/14 00:31:42;;;;;;;70.22;28.70;;;;;;;-8.20;100.00;100549.16;2071835;28;37373;-72
2022/12/14 00:32:45;;;;;;;75.60;28.90;;;;;;;-8.22;100.00;100560.28;2071358;28;37768;-72
2022/12/14 00:33:47;;;;;;;71.20;26.65;;;;;;;-8.22;100.00;100542.09;2063046;28;38313;-72
2022/12/14 00:34:49;;;;;;;69.90;27.48;;;;;;;-8.21;100.00;100551.69;2055322;28;38894;-72
2022/12/14 00:35:51;;;;;;;69.43;26.50;;;;;;;-8.22;100.00;100547.28;2063656;28;33000;-70
2022/12/14 00:36:53;;;;;;;77.50;28.08;;;;;;;-8.22;100.00;100545.56;2071846;28;41258;-72
2022/12/14 00:37:55;;;;;;;72.68;26.92;;;;;;;-8.23;100.00;100545.53;2064136;28;20294;-72
2022/12/14 00:38:59;;;;;;;72.95;27.02;;;;;;;-8.27;100.00;100547.97;2063208;28;37503;-72
2022/12/14 00:40:01;;;;;;;69.30;26.15;;;;;;;-8.34;100.00;100539.84;2071934;28;37638;-72
2022/12/14 00:41:03;;;;;;;62.78;25.45;;;;;;;-8.34;100.00;100550.22;2071631;28;37439;-71
2022/12/14 00:42:06;;;;;;;61.72;24.17;;;;;;;-8.35;100.00;100543.25;2072445;28;21049;-72
2022/12/14 00:43:08;;;;;;;68.55;27.02;;;;;;;-8.34;100.00;100545.91;2062857;28;40206;-72
2022/12/14 00:44:09;;;;;;;62.28;25.35;;;;;;;-8.36;100.00;100541.44;2055060;28;37830;-72
2022/12/14 00:45:11;;;;;;;69.50;27.17;;;;;;;-8.38;100.00;100537.91;2054811;28;37863;-72
2022/12/14 00:46:13;;;;;;;77.15;28.20;;;;;;;-8.37;100.00;100539.69;2063528;28;33411;-72
2022/12/14 00:47:14;;;;;;;60.22;24.63;;;;;;;-8.42;100.00;100536.91;2072272;28;20308;-72
2022/12/14 00:48:19;;;;;;;60.63;24.60;;;;;;;-8.43;100.00;100537.75;2071833;28;36718;-72
2022/12/14 00:49:20;;;;;;;64.05;24.42;;;;;;;-8.45;100.00;100539.38;2071949;28;32547;-72
2022/12/14 00:50:22;;;;;;;68.90;26.33;;;;;;;-8.45;100.00;100542.84;2071710;28;33873;-73
2022/12/14 00:51:24;;;;;;;59.63;24.50;;;;;;;-8.46;100.00;100541.06;2071547;28;39361;-72
2022/12/14 00:52:26;;;;;;;74.18;27.33;;;;;;;-8.39;100.00;100538.72;2071886;28;38884;-72
2022/12/14 00:53:28;;;;;;;68.95;26.63;;;;;;;-8.40;100.00;100550.81;2071929;28;38702;-72
2022/12/14 00:54:29;;;;;;;67.10;26.50;;;;;;;-8.38;100.00;100549.19;2071852;28;40295;-72
2022/12/14 00:55:39;;;;;;;70.07;26.20;;;;;;;-8.35;100.00;100551.03;2072616;28;21095;-72
2022/12/14 00:56:41;;;;;;;55.58;21.70;;;;;;;-8.34;100.00;100539.84;2063376;28;34048;-72
2022/12/14 00:57:45;;;;;;;69.30;26.10;;;;;;;-8.33;100.00;100547.66;2055240;28;38685;-72
2022/12/14 00:58:52;;;;;;;72.20;26.65;;;;;;;-8.31;100.00;100540.88;2064276;28;20278;-72
2022/12/14 00:59:55;;;;;;;71.95;27.27;;;;;;;-8.30;100.00;100546.94;2071625;28;40699;-72
2022/12/14 01:01:03;;;;;;;63.67;25.90;;;;;;;-8.32;100.00;100546.88;2072511;28;20246;-72
2022/12/14 01:02:05;;;;;;;63.17;23.85;;;;;;;-8.35;100.00;100538.06;2072036;28;31904;-72
2022/12/14 01:03:07;;;;;;;67.95;26.40;;;;;;;-8.38;100.00;100540.50;2071698;28;38779;-72
2022/12/14 01:04:18;;;;;;;59.30;23.65;;;;;;;-8.42;100.00;100539.50;2071440;28;35202;-72
2022/12/14 01:05:20;;;;;;;62.83;24.55;;;;;;;-8.49;100.00;100534.84;2063180;28;34089;-72
2022/12/14 01:06:21;;;;;;;49.13;21.13;;;;;;;-8.55;100.00;100538.03;2065143;28;20273;-71
2022/12/14 01:07:25;;;;;;;52.75;21.85;;;;;;;-8.62;100.00;100543.75;2071773;28;40996;-72
2022/12/14 01:08:34;;;;;;;50.33;21.73;;;;;;;-8.67;100.00;100535.78;2072008;28;31652;-72
2022/12/14 01:09:38;;;;;;;53.10;22.00;;;;;;;-8.71;100.00;100541.59;2072353;28;22326;-72
2022/12/14 01:10:40;;;;;;;54.20;22.65;;;;;;;-8.72;100.00;100536.34;2071526;28;40595;-72
2022/12/14 01:11:42;;;;;;;56.35;23.80;;;;;;;-8.75;100.00;100536.22;2071299;28;33111;-72
2022/12/14 01:12:44;;;;;;;55.38;22.30;;;;;;;-8.76;100.00;100534.41;2071968;28;33759;-72
2022/12/14 01:13:46;;;;;;;59.97;22.23;;;;;;;-8.75;100.00;100538.81;2071769;28;40557;-72
2022/12/14 01:14:50;;;;;;;61.22;24.45;;;;;;;-8.73;100.00;100534.56;2072248;28;20349;-72
2022/12/14 01:15:51;;;;;;;54.45;22.95;;;;;;;-8.75;100.00;100531.91;2071918;28;34855;-72
2022/12/14 01:16:53;;;;;;;64.82;25.40;;;;;;;-8.74;100.00;100537.97;2071726;28;36117;-72
2022/12/14 01:17:55;;;;;;;58.97;23.65;;;;;;;-8.76;100.00;100534.41;2071680;28;37990;-73
2022/12/14 01:18:59;;;;;;;63.10;24.30;;;;;;;-8.75;100.00;100531.03;2071459;28;40627;-72
2022/12/14 01:20:01;;;;;;;55.30;23.02;;;;;;;-8.78;100.00;100536.06;2072232;28;20237;-72
2022/12/14 01:21:18;;;;;;;62.40;24.15;;;;;;;-8.83;100.00;100535.81;2071484;28;38693;-72
2022/12/14 01:22:20;;;;;;;53.95;21.65;;;;;;;-8.85;100.00;100530.56;2063422;28;35222;-72
2022/12/14 01:23:22;;;;;;;54.78;23.67;;;;;;;-8.86;100.00;100535.69;2064547;28;20266;-72
2022/12/14 01:24:23;;;;;;;55.25;22.95;;;;;;;-8.88;100.00;100530.44;2071450;28;42226;-72
2022/12/14 01:25:25;;;;;;;55.00;22.45;;;;;;;-8.87;100.00;100532.19;2071900;28;35514;-72
2022/12/14 01:26:29;;;;;;;60.78;23.58;;;;;;;-8.84;100.00;100532.34;2063227;28;20238;-70
2022/12/14 01:27:33;;;;;;;53.63;22.95;;;;;;;-8.82;100.00;100521.16;2063206;28;40978;-73
2022/12/14 01:28:35;;;;;;;64.32;24.42;;;;;;;-8.80;100.00;100524.72;2071482;28;35039;-72
2022/12/14 01:29:37;;;;;;;62.65;24.23;;;;;;;-8.79;100.00;100521.28;2063247;28;33448;-72
2022/12/14 01:30:41;;;;;;;65.47;25.08;;;;;;;-8.77;100.00;100522.25;2062575;28;42042;-72
2022/12/14 01:31:45;;;;;;;55.97;23.48;;;;;;;-8.79;100.00;100518.69;2072360;28;21036;-72
2022/12/14 01:32:49;;;;;;;59.88;23.27;;;;;;;-8.80;100.00;100516.94;2071067;28;42081;-72
2022/12/14 01:33:51;;;;;;;56.53;22.80;;;;;;;-8.78;100.00;100525.69;2071537;28;36357;-72
2022/12/14 01:34:52;;;;;;;67.05;23.75;;;;;;;-8.79;100.00;100529.06;2071449;28;38465;-72
2022/12/14 01:35:55;;;;;;;61.65;23.85;;;;;;;-8.78;100.00;100518.78;2072516;28;20230;-72
2022/12/14 01:36:56;;;;;;;61.08;24.15;;;;;;;-8.82;100.00;100518.56;2071583;28;35421;-72
2022/12/14 01:37:58;;;;;;;65.15;22.98;;;;;;;-8.84;100.00;100519.38;2071228;28;42371;-72
2022/12/14 01:39:12;;;;;;;62.58;21.63;;;;;;;-8.83;100.00;100512.47;2071231;28;40028;-72
2022/12/14 01:40:15;;;;;;;64.78;23.55;;;;;;;-8.81;100.00;100509.97;2063929;28;21119;-72
2022/12/14 01:41:30;;;;;;;59.72;23.42;;;;;;;-8.80;100.00;100507.44;2064371;28;43172;-72
2022/12/14 01:42:35;;;;;;;61.00;24.00;;;;;;;-8.75;100.00;100510.28;2062419;28;38237;-72
2022/12/14 01:43:50;;;;;;;66.78;24.80;;;;;;;-8.74;100.00;100512.03;2063788;28;20215;-72
2022/12/14 01:44:56;;;;;;;63.90;24.10;;;;;;;-8.68;100.00;100507.16;2062275;28;41092;-72
2022/12/14 01:45:58;;;;;;;57.45;22.70;;;;;;;-8.69;100.00;100514.03;2063795;28;33215;-72
2022/12/14 01:47:15;;;;;;;61.88;23.17;;;;;;;-8.68;100.00;100508.03;2071348;28;37654;-72
2022/12/14 01:48:17;;;;;;;63.78;24.38;;;;;;;-8.67;100.00;100508.91;2063049;28;38973;-72
2022/12/14 01:49:31;;;;;;;60.53;23.67;;;;;;;-8.75;100.00;100505.97;2055950;28;38339;-72
2022/12/14 01:50:40;;;;;;;57.35;22.48;;;;;;;-8.80;100.00;100507.44;2065036;28;38058;-72
2022/12/14 01:51:52;;;;;;;60.70;23.00;;;;;;;-8.87;100.00;100519.22;2062372;28;36356;-72
2022/12/14 01:53:03;;;;;;;53.72;22.17;;;;;;;-8.95;100.00;100517.97;2057626;28;20401;-72
2022/12/14 01:54:09;;;;;;;55.22;21.77;;;;;;;-8.99;100.00;100510.84;2049484;28;36641;-72
2022/12/14 01:55:16;;;;;;;58.47;22.55;;;;;;;-9.03;100.00;100519.28;2056214;28;35491;-72
2022/12/14 01:56:18;;;;;;;52.88;20.55;;;;;;;-9.06;100.00;100513.94;2062976;28;39713;-72
2022/12/14 01:57:29;;;;;;;56.17;22.67;;;;;;;-8.97;100.00;100514.44;2054783;28;37571;-72
2022/12/14 01:58:33;;;;;;;48.60;19.90;;;;;;;-9.03;100.00;100508.94;2056332;28;38568;-72
2022/12/14 01:59:41;;;;;;;61.08;23.98;;;;;;;-9.01;100.00;100509.88;2063618;28;21100;-72
2022/12/14 02:00:43;;;;;;;56.72;23.42;;;;;;;-8.97;100.00;100501.47;2063198;28;35648;-72
2022/12/14 02:01:45;;;;;;;57.25;22.35;;;;;;;-8.92;100.00;100499.94;2063267;28;37603;-72
2022/12/14 02:03:25;;;;;;;64.30;23.00;;;;;;;-8.88;100.00;100498.38;2062882;28;39813;-72
2022/12/14 02:04:28;;;;;;;58.88;21.35;;;;;;;-8.82;100.00;100498.69;2068140;28;42103;-72
2022/12/14 02:05:34;;;;;;;66.55;23.88;;;;;;;-8.79;100.00;100495.34;2071091;28;40825;-72
2022/12/14 02:06:41;;;;;;;60.15;22.92;;;;;;;-8.72;100.00;100494.81;2071342;28;36408;-72
2022/12/14 02:07:44;;;;;;;64.75;24.23;;;;;;;-8.65;100.00;100491.69;2062777;28;38201;-72
2022/12/14 02:08:52;;;;;;;68.30;24.30;;;;;;;-8.61;100.00;100483.25;2056097;28;37755;-72
2022/12/14 02:09:58;;;;;;;65.32;23.60;;;;;;;-8.58;100.00;100478.19;2055351;28;41155;-72
2022/12/14 02:11:01;;;;;;;65.05;23.42;;;;;;;-8.56;100.00;100481.78;2056501;28;20276;-72
2022/12/14 02:12:06;;;;;;;69.22;24.23;;;;;;;-8.55;100.00;100482.66;2055265;28;39729;-72
2022/12/14 02:13:39;;;;;;;60.90;23.67;;;;;;;-8.60;100.00;100474.63;2063086;28;38482;-72
2022/12/14 02:14:41;;;;;;;62.30;21.70;;;;;;;-8.64;100.00;100472.72;2062491;28;34141;-72
2022/12/14 02:15:43;;;;;;;60.50;22.60;;;;;;;-8.67;100.00;100470.91;2057864;28;38612;-72
2022/12/14 02:16:48;;;;;;;67.63;22.98;;;;;;;-8.66;100.00;100476.97;2054249;28;38647;-72
2022/12/14 02:17:52;;;;;;;59.92;22.70;;;;;;;-8.72;100.00;100472.38;2063385;28;40511;-72
2022/12/14 02:18:54;;;;;;;65.18;23.65;;;;;;;-8.76;100.00;100472.16;2062309;28;36356;-72
2022/12/14 02:19:57;;;;;;;54.72;21.50;;;;;;;-8.77;100.00;100467.78;2062868;28;37936;-72
2022/12/14 02:21:51;;;;;;;55.42;22.30;;;;;;;-8.87;100.00;100462.16;2070878;28;39636;-72
2022/12/14 02:23:02;;;;;;;61.10;22.10;;;;;;;-8.90;100.00;100459.44;2050320;28;39005;-72
2022/12/14 02:24:42;;;;;;;62.75;22.90;;;;;;;-8.90;100.00;100464.63;2063718;28;35847;-71
2022/12/14 02:26:39;;;;;;;59.95;21.40;;;;;;;-8.92;100.00;100460.16;2069548;28;37372;-72
2022/12/14 02:28:28;;;;;;;54.78;20.10;;;;;;;-9.00;100.00;100462.41;2064853;28;20054;-72
2022/12/14 02:29:58;;;;;;;55.10;20.45;;;;;;;-9.08;100.00;100462.03;2072727;28;31849;-72
2022/12/14 02:31:10;;;;;;;59.15;20.38;;;;;;;-9.09;100.00;100468.03;2064231;28;27958;-72
2022/12/14 02:33:00;;;;;;;56.03;21.38;;;;;;;-9.10;100.00;100461.06;2061322;28;35914;-72
2022/12/14 02:34:54;;;;;;;45.30;17.92;;;;;;;-9.15;100.00;100464.25;2063479;28;43158;-72
2022/12/14 02:36:23;;;;;;;52.03;18.52;;;;;;;-9.15;100.00;100462.56;2064504;28;37784;-72
2022/12/14 02:37:56;;;;;;;45.17;19.02;;;;;;;-9.11;100.00;100464.47;2065145;28;21163;-72
2022/12/14 02:39:11;;;;;;;58.80;21.05;;;;;;;-9.04;100.00;100455.31;2055715;28;42576;-72
2022/12/14 02:40:49;;;;;;;58.60;20.63;;;;;;;-9.08;100.00;100455.94;2061046;28;25260;-72
2022/12/14 02:41:59;;;;;;;54.78;21.00;;;;;;;-9.03;100.00;100460.53;2033639;28;40676;-72
2022/12/14 02:43:27;;;;;;;45.67;17.63;;;;;;;-9.02;100.00;100456.25;2056015;28;37727;-72
2022/12/14 02:44:56;;;;;;;57.72;20.75;;;;;;;-9.03;100.00;100451.88;2059834;28;30380;-72
2022/12/14 02:46:06;;;;;;;56.95;20.20;;;;;;;-9.12;100.00;100454.91;2064079;28;40724;-72
2022/12/14 02:47:25;;;;;;;51.67;19.27;;;;;;;-9.18;100.00;100452.03;2064351;28;42551;-70
2022/12/14 02:48:35;;;;;;;57.83;20.20;;;;;;;-9.13;100.00;100454.84;2056160;28;35851;-72
2022/12/14 02:50:26;;;;;;;64.57;23.15;;;;;;;-9.10;100.00;100447.22;2049106;28;40198;-72
2022/12/14 02:51:55;;;;;;;59.40;20.58;;;;;;;-8.93;100.00;100443.72;2063528;28;39400;-71
2022/12/14 02:53:27;;;;;;;46.90;16.40;;;;;;;-9.04;100.00;100444.94;2055754;28;41132;-72
2022/12/14 02:54:44;;;;;;;59.90;21.23;;;;;;;-9.08;100.00;100448.16;2051696;28;39753;-72
2022/12/14 02:55:59;;;;;;;57.10;20.80;;;;;;;-9.11;100.00;100437.66;2060412;28;34346;-72
2022/12/14 02:57:29;;;;;;;55.60;20.92;;;;;;;-9.20;100.00;100451.09;2055973;28;41104;-72
2022/12/14 02:58:41;;;;;;;59.10;20.65;;;;;;;-9.28;100.00;100449.81;2061663;28;36870;-72
2022/12/14 02:59:45;;;;;;;47.00;17.77;;;;;;;-9.34;100.00;100450.41;2055551;28;36967;-72
2022/12/14 03:00:52;;;;;;;58.33;20.83;;;;;;;-9.42;100.00;100452.63;2064860;28;39383;-73
2022/12/14 03:01:55;;;;;;;53.05;20.08;;;;;;;-9.45;100.00;100449.00;2072096;28;42129;-72
2022/12/14 03:02:58;;;;;;;51.53;20.35;;;;;;;-9.53;100.00;100445.13;2072455;28;38179;-72
2022/12/14 03:04:00;;;;;;;58.63;20.85;;;;;;;-9.57;100.00;100445.78;2068623;28;36974;-73
2022/12/14 03:05:01;;;;;;;50.63;18.92;;;;;;;-9.60;100.00;100443.91;2063714;28;39731;-72
2022/12/14 03:06:24;;;;;;;57.67;19.77;;;;;;;-9.58;100.00;100444.91;2064292;28;37643;-72
2022/12/14 03:07:37;;;;;;;52.38;19.92;;;;;;;-9.60;100.00;100439.66;2047788;28;42834;-72
2022/12/14 03:08:41;;;;;;;50.17;18.48;;;;;;;-9.62;100.00;100443.88;2053525;28;36573;-72
2022/12/14 03:09:45;;;;;;;51.13;19.23;;;;;;;-9.62;100.00;100442.97;2055799;28;39028;-72
2022/12/14 03:10:56;;;;;;;58.90;21.25;;;;;;;-9.42;100.00;100442.25;2056258;28;38775;-72
2022/12/14 03:12:10;;;;;;;65.60;22.25;;;;;;;-9.20;100.00;100432.94;2055617;28;36061;-72
2022/12/14 03:13:27;;;;;;;57.75;20.77;;;;;;;-9.10;100.00;100429.94;2050235;28;38761;-72
2022/12/14 03:14:40;;;;;;;70.07;21.60;;;;;;;-9.04;100.00;100431.97;2059373;28;38033;-72
2022/12/14 03:15:49;;;;;;;63.10;21.55;;;;;;;-8.98;100.00;100436.53;2064424;28;36395;-72
2022/12/14 03:16:52;;;;;;;70.38;22.65;;;;;;;-9.03;100.00;100428.53;2056211;28;23272;-72
2022/12/14 03:17:59;;;;;;;70.38;23.52;;;;;;;-8.97;100.00;100435.72;2040695;28;42859;-72
2022/12/14 03:19:09;;;;;;;60.67;22.55;;;;;;;-9.03;100.00;100425.94;2049283;28;36927;-72
2022/12/14 03:20:17;;;;;;;58.60;21.65;;;;;;;-9.05;100.00;100427.56;2056298;28;25872;-72
2022/12/14 03:21:38;;;;;;;49.85;17.05;;;;;;;-9.09;100.00;100423.06;2050677;28;20240;-72
2022/12/14 03:23:02;;;;;;;62.72;21.67;;;;;;;-9.19;100.00;100432.09;2051033;28;38990;-72
2022/12/14 03:24:11;;;;;;;64.60;20.30;;;;;;;-9.27;100.00;100429.16;2052578;28;37328;-72
2022/12/14 03:25:34;;;;;;;57.75;21.73;;;;;;;-9.32;100.00;100428.03;2050161;28;40572;-72
2022/12/14 03:27:03;;;;;;;54.00;19.50;;;;;;;-9.39;100.00;100435.44;2051558;28;34751;-72
2022/12/14 03:28:38;;;;;;;43.72;17.27;;;;;;;-9.49;100.00;100426.31;2062029;28;41422;-72
2022/12/14 03:29:51;;;;;;;58.20;18.75;;;;;;;-9.62;100.00;100420.56;2064002;28;37537;-72
2022/12/14 03:31:07;;;;;;;58.97;20.50;;;;;;;-9.73;100.00;100424.28;2056234;28;20377;-72
2022/12/14 03:32:15;;;;;;;53.67;19.35;;;;;;;-9.84;100.00;100420.28;2050491;28;35757;-72
2022/12/14 03:33:21;;;;;;;53.47;20.02;;;;;;;-9.85;100.00;100421.09;2057895;28;42548;-72
2022/12/14 03:34:34;;;;;;;57.03;20.30;;;;;;;-9.91;100.00;100418.19;2062196;28;20258;-72
2022/12/14 03:35:54;;;;;;;59.35;20.25;;;;;;;-9.95;100.00;100416.28;2055370;28;36927;-72
2022/12/14 03:37:12;;;;;;;51.72;18.13;;;;;;;-9.99;100.00;100418.69;2059914;28;20227;-72
2022/12/14 03:38:29;;;;;;;55.25;19.23;;;;;;;-10.00;100.00;100416.91;2055374;28;40091;-72
2022/12/14 03:39:36;;;;;;;58.45;20.05;;;;;;;-10.04;100.00;100414.97;2055534;28;22505;-72
2022/12/14 03:40:56;;;;;;;52.28;18.58;;;;;;;-10.07;100.00;100427.75;2056407;28;43283;-72
2022/12/14 03:42:18;;;;;;;52.30;17.92;;;;;;;-10.14;100.00;100414.44;2064456;28;39509;-72
2022/12/14 03:43:42;;;;;;;57.40;16.88;;;;;;;-10.16;100.00;100416.94;2064828;28;21329;-72
2022/12/14 03:45:16;;;;;;;50.78;17.90;;;;;;;-10.22;100.00;100408.88;2063718;28;41666;-72
2022/12/14 03:46:31;;;;;;;54.90;17.75;;;;;;;-10.25;100.00;100412.16;2064989;28;21431;-72
2022/12/14 03:48:19;;;;;;;52.72;19.08;;;;;;;-10.28;100.00;100412.03;2064124;28;35241;-72
2022/12/14 03:49:50;;;;;;;55.03;18.10;;;;;;;-10.24;100.00;100408.78;2064295;28;39802;-72
2022/12/14 03:51:03;;;;;;;57.45;18.65;;;;;;;-10.16;100.00;100409.16;2063566;28;42100;-72
2022/12/14 03:52:22;;;;;;;56.15;18.55;;;;;;;-10.17;100.00;100400.53;2063830;28;20247;-72
2022/12/14 03:54:00;;;;;;;59.03;19.13;;;;;;;-10.06;100.00;100411.44;2055342;28;39858;-72
2022/12/14 03:55:17;;;;;;;54.78;19.27;;;;;;;-10.00;100.00;100398.78;2060669;28;39639;-72
2022/12/14 03:57:08;;;;;;;52.35;18.05;;;;;;;-9.96;100.00;100397.25;2063664;28;40797;-72
2022/12/14 03:58:27;;;;;;;59.60;18.77;;;;;;;-9.99;100.00;100394.53;2047048;28;37361;-72
2022/12/14 03:59:37;;;;;;;52.42;17.77;;;;;;;-10.00;100.00;100396.19;2047057;28;40912;-72
2022/12/14 04:01:04;;;;;;;55.80;19.33;;;;;;;-10.01;100.00;100391.84;2047513;28;39977;-72
2022/12/14 04:02:44;;;;;;;57.63;19.77;;;;;;;-9.99;100.00;100400.56;2059557;28;43726;-72
2022/12/14 04:04:00;;;;;;;53.17;18.73;;;;;;;-9.95;100.00;100408.50;2030889;29;33146;-72
2022/12/14 04:05:17;;;;;;;52.53;19.33;;;;;;;-9.91;100.00;100400.94;2042975;28;40572;-72
2022/12/14 04:07:00;;;;;;;56.78;18.70;;;;;;;-9.90;100.00;100401.88;2072941;28;20689;-72
2022/12/14 04:08:12;;;;;;;54.13;18.63;;;;;;;-9.87;100.00;100395.13;2047354;28;20396;-72
2022/12/14 04:09:44;;;;;;;;;;;;;;;-9.71;100.00;100396.75;2073246;28;20266;-72
2022/12/14 04:20:18;;;;;;;59.97;20.10;;;;;;;-9.68;100.00;100371.00;2059119;28;39150;-71
2022/12/14 04:21:46;;;;;;;67.15;21.52;;;;;;;-9.60;100.00;100372.28;2061507;28;38187;-72
2022/12/14 04:23:09;;;;;;;65.57;21.33;;;;;;;-9.54;100.00;100368.22;2068543;28;40374;-72
2022/12/14 04:26:04;;;;;;;62.88;21.50;;;;;;;-9.51;100.00;100370.94;2071159;28;37436;-72
2022/12/14 04:27:30;;;;;;;65.70;21.25;;;;;;;-9.50;100.00;100371.03;2063204;28;35017;-72
2022/12/14 04:30:14;;;;;;;63.70;20.77;;;;;;;-9.49;100.00;100364.13;2063453;28;21014;-72
2022/12/14 04:31:21;;;;;;;72.32;23.55;;;;;;;-9.44;100.00;100365.22;2059617;28;42515;-73
2022/12/14 04:32:54;;;;;;;60.63;21.77;;;;;;;-9.51;100.00;100366.66;2056251;28;40385;-73
2022/12/14 04:34:02;;;;;;;61.25;20.85;;;;;;;-9.59;100.00;100365.41;2068373;28;39382;-72
2022/12/14 04:35:30;;;;;;;68.47;22.35;;;;;;;-9.63;100.00;100364.34;2072000;28;42773;-72
2022/12/14 04:36:55;;;;;;;58.40;20.15;;;;;;;-9.66;100.00;100364.19;2063235;28;36323;-72
2022/12/14 04:38:09;;;;;;;69.07;20.88;;;;;;;-9.65;100.00;100366.00;2061750;28;37844;-71
2022/12/14 04:39:24;;;;;;;54.25;20.13;;;;;;;-9.67;100.00;100361.53;2051660;28;43000;-72
2022/12/14 04:40:39;;;;;;;67.72;21.85;;;;;;;-9.65;100.00;100363.41;2051995;28;39605;-72
2022/12/14 04:41:48;;;;;;;60.78;20.40;;;;;;;-9.69;100.00;100356.31;2059828;28;21131;-72
2022/12/14 04:43:07;;;;;;;56.05;20.05;;;;;;;-9.74;100.00;100364.63;2065704;28;43226;-72
2022/12/14 04:44:18;;;;;;;64.88;21.05;;;;;;;-9.82;100.00;100357.38;2062958;28;38182;-72
2022/12/14 04:45:30;;;;;;;54.97;18.98;;;;;;;-9.83;100.00;100355.63;2058433;28;20268;-72
2022/12/14 04:46:37;;;;;;;56.53;20.60;;;;;;;-9.88;100.00;100356.22;2056789;28;37127;-72
2022/12/14 04:48:15;;;;;;;50.45;19.92;;;;;;;-9.90;100.00;100350.06;2056835;28;39453;-72
2022/12/14 04:49:31;;;;;;;62.95;20.50;;;;;;;-9.89;100.00;100352.72;2069412;28;43160;-72
2022/12/14 04:50:41;;;;;;;60.70;20.60;;;;;;;-9.90;100.00;100355.25;2072052;28;36735;-72
2022/12/14 04:52:10;;;;;;;53.92;20.45;;;;;;;-9.93;100.00;100362.84;2063138;28;41506;-72
2022/12/14 04:53:24;;;;;;;52.95;18.67;;;;;;;-9.96;100.00;100358.41;2059943;28;39509;-72
2022/12/14 04:54:54;;;;;;;58.22;20.67;;;;;;;-9.84;100.00;100361.59;2068421;28;42593;-72
2022/12/14 04:56:48;;;;;;;54.75;19.45;;;;;;;-9.83;100.00;100368.56;2071474;28;39668;-72
2022/12/14 04:58:07;;;;;;;49.70;17.20;;;;;;;-9.82;100.00;100369.44;2030312;29;36518;-72
2022/12/14 04:59:09;;;;;;;56.03;19.48;;;;;;;-9.82;100.00;100366.84;2048535;28;36372;-72
2022/12/14 05:00:12;;;;;;;56.38;19.48;;;;;;;-9.84;100.00;100365.91;2056991;28;40744;-72
2022/12/14 05:01:29;;;;;;;55.60;19.75;;;;;;;-9.84;100.00;100364.19;2055103;28;38328;-72
2022/12/14 05:02:48;;;;;;;58.88;20.17;;;;;;;-9.86;100.00;100359.75;2065827;28;38718;-72
2022/12/14 05:04:10;;;;;;;56.90;20.13;;;;;;;-9.91;100.00;100362.09;2063065;28;34149;-72
2022/12/14 05:05:22;;;;;;;48.33;18.63;;;;;;;-9.92;100.00;100367.22;2068111;28;20270;-72
2022/12/14 05:06:34;;;;;;;;;;;;;;;-10.00;100.00;100359.94;2072132;28;38990;-72
2022/12/14 05:07:59;;;;;;;47.50;16.58;;;;;;;-10.10;100.00;100362.00;2071806;28;36547;-72
2022/12/14 05:09:16;;;;;;;49.03;17.90;;;;;;;-10.17;100.00;100358.25;2062828;28;38532;-72
2022/12/14 05:10:29;;;;;;;57.85;20.10;;;;;;;-10.21;100.00;100362.38;2058399;28;38423;-72
2022/12/14 05:12:02;;;;;;;50.73;18.57;;;;;;;-10.27;100.00;100354.28;2062905;28;34350;-72
2022/12/14 05:13:15;;;;;;;52.53;18.55;;;;;;;-10.31;100.00;100359.28;2071919;28;20300;-72
2022/12/14 05:14:27;;;;;;;49.78;18.42;;;;;;;-10.32;100.00;100354.88;2062912;28;39493;-72
2022/12/14 05:15:38;;;;;;;47.55;17.90;;;;;;;-10.38;100.00;100356.34;2065832;28;38281;-72
2022/12/14 05:16:39;;;;;;;54.90;19.42;;;;;;;-10.42;100.00;100350.97;2071774;28;41165;-72
2022/12/14 05:17:41;;;;;;;51.42;19.27;;;;;;;-10.38;100.00;100366.69;2072062;28;20034;-72
2022/12/14 05:18:44;;;;;;;52.67;20.20;;;;;;;-10.33;100.00;100359.19;2071589;28;38687;-72
2022/12/14 05:19:48;;;;;;;56.17;20.08;;;;;;;-10.28;100.00;100357.69;2061741;28;37698;-72
2022/12/14 05:20:52;;;;;;;56.20;21.73;;;;;;;-10.26;100.00;100355.19;2054553;28;37160;-72
2022/12/14 05:21:54;;;;;;;54.08;20.27;;;;;;;-10.26;100.00;100348.31;2046483;28;40352;-72
2022/12/14 05:22:58;;;;;;;45.95;18.38;;;;;;;-10.27;100.00;100358.56;2038954;28;37296;-72
2022/12/14 05:24:02;;;;;;;50.10;19.98;;;;;;;-10.30;100.00;100355.81;2046948;28;38715;-72
2022/12/14 05:25:05;;;;;;;58.55;21.25;;;;;;;-10.32;100.00;100353.19;2054735;28;35417;-72
2022/12/14 05:26:07;;;;;;;53.38;19.00;;;;;;;-10.29;100.00;100355.91;2061679;28;36988;-72
2022/12/14 05:27:08;;;;;;;53.70;18.83;;;;;;;-10.29;100.00;100353.31;2063067;28;37463;-72
2022/12/14 05:28:11;;;;;;;46.88;18.08;;;;;;;-10.31;100.00;100348.91;2054393;28;37053;-72
2022/12/14 05:29:13;;;;;;;52.05;19.02;;;;;;;-10.34;100.00;100349.63;2055315;28;33784;-72
2022/12/14 05:30:16;;;;;;;49.50;18.92;;;;;;;-10.39;100.00;100344.25;2054635;28;35423;-72
2022/12/14 05:31:17;;;;;;;49.25;19.35;;;;;;;-10.40;100.00;100342.44;2054786;28;36088;-72
2022/12/14 05:32:19;;;;;;;45.40;18.25;;;;;;;-10.45;100.00;100341.31;2054538;28;40431;-72
2022/12/14 05:33:21;;;;;;;50.20;19.63;;;;;;;-10.49;100.00;100335.94;2054727;28;38531;-72